createdAt,value
2022-12-08T00:00:39.043Z,19.13
2022-12-08T00:06:07.600Z,22.83
2022-12-08T00:11:14.075Z,21.95
2022-12-08T00:16:15.976Z,32.45
2022-12-08T00:21:18.011Z,24.75
2022-12-08T00:26:19.871Z,26.88
2022-12-08T00:31:21.916Z,23.05
2022-12-08T00:36:23.824Z,25.08
2022-12-08T00:41:46.254Z,30.75
2022-12-08T00:46:48.722Z,33.63
2022-12-08T00:51:50.966Z,41.63
2022-12-08T00:56:53.054Z,26.20
2022-12-08T01:01:54.950Z,28.65
2022-12-08T01:06:56.797Z,24.65
2022-12-08T01:11:58.860Z,24.42
2022-12-08T01:17:00.767Z,25.98
2022-12-08T01:22:02.689Z,22.88
2022-12-08T01:27:04.905Z,25.38
2022-12-08T01:32:08.491Z,28.42
2022-12-08T01:37:12.579Z,25.55
2022-12-08T01:42:22.595Z,23.88
2022-12-08T01:47:30.205Z,28.08
2022-12-08T01:52:42.888Z,28.30
2022-12-08T01:57:48.953Z,27.95
2022-12-08T02:03:09.167Z,36.67
2022-12-08T02:08:13.444Z,41.60
2022-12-08T02:13:17.855Z,34.33
2022-12-08T02:18:42.995Z,37.65
2022-12-08T02:24:07.496Z,36.97
2022-12-08T02:29:36.054Z,35.17
2022-12-08T02:34:45.053Z,35.35
2022-12-08T02:40:01.259Z,36.30
2022-12-08T02:45:12.487Z,33.97
2022-12-08T02:50:15.625Z,33.30
2022-12-08T02:55:28.196Z,29.65
2022-12-08T03:01:02.853Z,30.90
2022-12-08T03:06:11.654Z,29.95
2022-12-08T03:11:49.007Z,26.90
2022-12-08T03:16:55.383Z,26.02
2022-12-08T03:22:03.115Z,25.23
2022-12-08T03:27:32.018Z,21.75
2022-12-08T03:32:40.675Z,18.80
2022-12-08T03:37:43.584Z,20.48
2022-12-08T03:42:45.580Z,17.27
2022-12-08T03:47:47.988Z,23.00
2022-12-08T03:52:49.836Z,21.48
2022-12-08T03:57:51.723Z,20.83
2022-12-08T04:02:53.919Z,18.73
2022-12-08T04:07:58.169Z,19.05
2022-12-08T04:13:00.461Z,23.70
2022-12-08T04:18:02.765Z,23.27
2022-12-08T04:23:04.788Z,20.73
2022-12-08T04:28:06.976Z,23.73
2022-12-08T04:33:08.877Z,22.35
2022-12-08T04:38:11.017Z,19.65
2022-12-08T04:43:12.891Z,21.45
2022-12-08T04:48:15.679Z,24.02
2022-12-08T04:53:17.914Z,15.33
2022-12-08T04:58:20.315Z,25.45
2022-12-08T05:03:28.544Z,19.27
2022-12-08T05:08:31.266Z,22.42
2022-12-08T05:13:33.454Z,28.27
2022-12-08T05:18:35.967Z,20.98
2022-12-08T05:23:38.119Z,21.35
2022-12-08T05:28:41.738Z,26.05
2022-12-08T05:33:45.323Z,22.42
2022-12-08T05:38:47.737Z,22.93
2022-12-08T05:43:49.674Z,25.60
2022-12-08T05:48:51.719Z,24.13
2022-12-08T05:53:54.055Z,21.48
2022-12-08T05:58:56.010Z,25.67
2022-12-08T06:03:59.700Z,32.35
2022-12-08T06:14:11.228Z,33.40
2022-12-08T06:19:13.800Z,30.67
2022-12-08T06:24:15.765Z,26.05
2022-12-08T06:29:17.592Z,27.38
2022-12-08T06:34:19.506Z,37.13
2022-12-08T06:39:21.362Z,33.80
2022-12-08T06:44:23.431Z,38.28
2022-12-08T06:49:25.630Z,45.50
2022-12-08T06:54:27.747Z,36.72
2022-12-08T06:59:29.702Z,27.55
2022-12-08T07:04:31.702Z,47.03
2022-12-08T07:09:33.834Z,89.85
2022-12-08T07:14:35.696Z,104.55
2022-12-08T07:19:37.823Z,104.22
2022-12-08T07:24:39.724Z,76.13
2022-12-08T07:29:41.809Z,118.60
2022-12-08T07:34:43.681Z,102.70
2022-12-08T07:39:46.269Z,77.07
2022-12-08T07:44:48.121Z,68.85
2022-12-08T07:49:50.138Z,87.78
2022-12-08T07:54:52.017Z,61.60
2022-12-08T07:59:53.882Z,51.80
2022-12-08T08:04:55.809Z,76.07
2022-12-08T08:09:58.116Z,72.05
2022-12-08T08:15:01.638Z,110.45
2022-12-08T08:20:08.354Z,90.72
2022-12-08T08:25:10.321Z,74.07
2022-12-08T08:35:22.532Z,58.60
2022-12-08T08:40:25.651Z,44.40
2022-12-08T08:45:28.416Z,55.85
2022-12-08T08:50:37.227Z,49.53
2022-12-08T08:55:40.420Z,47.70
2022-12-08T09:00:43.853Z,50.20
2022-12-08T09:05:45.908Z,40.25
2022-12-08T09:10:47.872Z,32.88
2022-12-08T09:15:49.940Z,27.50
2022-12-08T09:20:52.245Z,37.05
2022-12-08T09:25:54.152Z,35.80
2022-12-08T09:30:56.192Z,32.22
2022-12-08T09:36:02.754Z,30.92
2022-12-08T09:41:14.667Z,44.58
2022-12-08T09:46:18.149Z,39.33
2022-12-08T09:51:20.035Z,43.88
2022-12-08T09:56:25.457Z,38.88
2022-12-08T10:01:31.181Z,34.13
2022-12-08T10:06:36.410Z,37.63
2022-12-08T10:11:47.349Z,40.70
2022-12-08T10:16:52.150Z,42.00
2022-12-08T10:21:56.983Z,58.47
2022-12-08T10:26:59.333Z,47.50
2022-12-08T10:32:09.131Z,55.03
2022-12-08T10:37:11.410Z,38.45
2022-12-08T10:42:22.224Z,45.22
2022-12-08T10:47:26.865Z,55.33
2022-12-08T10:52:28.742Z,38.13
2022-12-08T10:57:30.620Z,35.38
2022-12-08T11:02:32.825Z,45.78
2022-12-08T11:07:35.005Z,53.88
2022-12-08T11:12:37.555Z,58.70
2022-12-08T11:17:39.565Z,73.55
2022-12-08T11:22:44.487Z,77.45
2022-12-08T11:27:48.864Z,72.55
2022-12-08T11:32:57.362Z,70.53
2022-12-08T11:38:20.487Z,73.97
2022-12-08T11:43:34.507Z,64.57
2022-12-08T11:49:18.028Z,55.07
2022-12-08T11:54:32.921Z,54.83
2022-12-08T11:59:47.241Z,50.67
2022-12-08T12:05:01.928Z,51.60
2022-12-08T12:10:28.733Z,43.55
2022-12-08T12:16:07.869Z,47.30
2022-12-08T12:21:23.939Z,51.58
2022-12-08T12:26:29.424Z,50.08
2022-12-08T12:31:35.322Z,54.15
2022-12-08T12:36:57.838Z,54.00
2022-12-08T12:42:04.874Z,56.67
2022-12-08T12:47:12.156Z,51.05
2022-12-08T12:52:17.142Z,43.40
2022-12-08T12:57:18.968Z,51.20
2022-12-08T13:02:24.088Z,53.28
2022-12-08T13:07:29.991Z,46.63
2022-12-08T13:12:32.001Z,48.10
2022-12-08T13:17:37.263Z,45.08
2022-12-08T13:23:09.966Z,40.05
2022-12-08T13:28:31.178Z,36.95
2022-12-08T13:33:38.008Z,48.05
2022-12-08T13:38:43.150Z,45.47
2022-12-08T13:44:50.386Z,56.30
2022-12-08T13:55:58.820Z,46.33
2022-12-08T14:00:24.081Z,45.17
2022-12-08T14:06:10.537Z,47.45
2022-12-08T14:11:06.274Z,48.15
2022-12-08T14:16:28.321Z,61.90
2022-12-08T14:21:35.826Z,72.03
2022-12-08T14:26:38.702Z,64.35
2022-12-08T14:31:40.839Z,65.68
2022-12-08T14:36:42.869Z,73.57
2022-12-08T14:42:00.305Z,69.10
2022-12-08T14:47:10.695Z,72.32
2022-12-08T14:52:12.727Z,67.32
2022-12-08T14:57:15.236Z,78.15
2022-12-08T15:02:21.741Z,56.78
2022-12-08T15:07:30.028Z,113.30
2022-12-08T15:12:33.303Z,116.20
2022-12-08T15:17:48.987Z,99.40
2022-12-08T15:22:51.558Z,111.57
2022-12-08T15:27:53.760Z,131.57
2022-12-08T15:32:56.341Z,86.78
2022-12-08T15:37:58.383Z,112.78
2022-12-08T15:43:00.288Z,80.93
2022-12-08T15:48:02.248Z,65.10
2022-12-08T15:53:04.203Z,51.95
2022-12-08T16:09:06.212Z,73.03
2022-12-08T16:15:01.705Z,74.00
2022-12-08T16:19:35.323Z,89.43
2022-12-08T16:24:37.251Z,71.75
2022-12-08T16:29:39.050Z,75.07
2022-12-08T16:34:42.141Z,81.10
2022-12-08T16:39:46.197Z,73.73
2022-12-08T16:44:49.668Z,70.47
2022-12-08T16:49:51.916Z,60.63
2022-12-08T16:54:53.797Z,62.60
2022-12-08T16:59:55.721Z,68.78
2022-12-08T17:04:57.689Z,62.40
2022-12-08T17:09:59.645Z,68.18
2022-12-08T17:15:07.117Z,106.70
2022-12-08T17:20:13.336Z,106.22
2022-12-08T17:25:16.059Z,85.57
2022-12-08T17:30:19.180Z,71.07
2022-12-08T17:35:21.594Z,73.50
2022-12-08T17:40:27.986Z,72.93
2022-12-08T17:45:30.276Z,65.28
2022-12-08T17:50:32.320Z,57.15
2022-12-08T17:55:34.915Z,61.38
2022-12-08T18:00:37.084Z,95.85
2022-12-08T18:05:39.016Z,77.47
2022-12-08T18:10:40.933Z,71.20
2022-12-08T18:15:43.009Z,63.58
2022-12-08T18:20:44.865Z,64.32
2022-12-08T18:25:47.135Z,78.63
2022-12-08T18:30:49.315Z,86.45
2022-12-08T18:35:51.721Z,74.68
2022-12-08T18:40:53.615Z,76.43
2022-12-08T18:46:04.391Z,99.55
2022-12-08T18:51:14.695Z,89.60
2022-12-08T18:56:30.760Z,89.38
2022-12-08T19:01:34.803Z,76.82
2022-12-08T19:06:39.227Z,82.18
2022-12-08T19:11:41.958Z,87.55
2022-12-08T19:16:44.062Z,75.50
2022-12-08T19:21:46.823Z,76.93
2022-12-08T19:26:48.932Z,92.50
2022-12-08T19:31:51.073Z,87.30
2022-12-08T19:36:53.459Z,84.25
2022-12-08T19:42:14.436Z,79.20
2022-12-08T19:47:16.527Z,85.63
2022-12-08T19:52:18.795Z,68.45
2022-12-08T19:57:20.900Z,68.05
2022-12-08T20:02:22.908Z,62.85
2022-12-08T20:07:24.907Z,79.80
2022-12-08T20:12:26.764Z,64.88
2022-12-08T20:17:28.694Z,61.78
2022-12-08T20:22:30.667Z,65.43
2022-12-08T20:27:33.365Z,77.68
2022-12-08T20:32:35.319Z,67.82
2022-12-08T20:37:37.615Z,60.33
2022-12-08T20:42:39.689Z,71.45
2022-12-08T20:47:41.685Z,69.95
2022-12-08T20:52:43.681Z,85.20
2022-12-08T20:57:45.766Z,84.50
2022-12-08T21:02:53.317Z,77.63
2022-12-08T21:07:58.207Z,77.47
2022-12-08T21:13:02.097Z,87.57
2022-12-08T21:18:04.378Z,88.15
2022-12-08T21:23:06.275Z,73.47
2022-12-08T21:28:08.422Z,73.88
2022-12-08T21:33:10.359Z,84.10
2022-12-08T21:38:12.768Z,67.75
2022-12-08T21:43:14.919Z,80.55
2022-12-08T21:48:17.448Z,75.85
2022-12-08T21:53:20.775Z,70.32
2022-12-08T21:58:22.902Z,83.13
2022-12-08T22:03:24.814Z,61.47
2022-12-08T22:08:27.914Z,69.10
2022-12-08T22:13:30.044Z,68.45
2022-12-08T22:18:32.730Z,64.88
2022-12-08T22:23:34.978Z,67.43
2022-12-08T22:28:39.871Z,89.35
2022-12-08T22:33:42.675Z,101.90
2022-12-08T22:38:44.954Z,84.63
2022-12-08T22:43:47.894Z,74.40
2022-12-08T22:48:51.044Z,72.85
2022-12-08T22:53:53.074Z,74.15
2022-12-08T22:58:55.147Z,65.93
2022-12-08T23:03:58.408Z,69.85
2022-12-08T23:09:00.828Z,70.43
2022-12-08T23:14:03.428Z,67.18
2022-12-08T23:19:05.587Z,82.93
2022-12-08T23:24:07.511Z,81.13
2022-12-08T23:29:09.524Z,75.85
2022-12-08T23:34:11.667Z,74.82
2022-12-08T23:39:13.676Z,86.50
2022-12-08T23:44:15.559Z,72.90
2022-12-08T23:49:17.652Z,79.80
2022-12-08T23:54:19.532Z,64.60
2022-12-08T23:59:21.435Z,71.20
